Evan, Minnesota
Current Conditions -  °F | °C
As of 12:53 AM on Sunday 23 Nov 2014 (Local Time) from KRWF Reporting Station
Haze Haze  
Wind Chill: 38°   Ceiling: 10000
Heat Index: 46°   Visibility: 6mi
Dew Point: 43°   Wind: 20mph
Humidity: 89%   Direction: 220°SW
Pressure: 29.43"   Gusts: NA
Location:  44.3713°N, 94.9134°W
Report Text: KRWF 230653Z AUTO 22017KT 6SM BR OVC100 08/06 A2943 RMK AO2 SLP973 T00780061
Loading
Personal Weather Stations






























Interactive Weather Map New forecast layout! Learn more

10-Day Weather Forecast

Advertisements
Track Severe Weather on mobile